createdAt,value
2018-06-24T00:02:07.927Z,42.67
2018-06-24T00:04:37.068Z,34.80
2018-06-24T00:07:06.679Z,19.43
2018-06-24T00:09:36.813Z,31.70
2018-06-24T00:12:06.351Z,28.63
2018-06-24T00:14:35.965Z,28.63
2018-06-24T00:17:05.283Z,23.47
2018-06-24T00:19:34.802Z,22.30
2018-06-24T00:22:04.388Z,22.77
2018-06-24T00:24:33.719Z,28.00
2018-06-24T00:27:03.548Z,32.27
2018-06-24T00:29:33.098Z,21.50
2018-06-24T00:32:02.371Z,25.67
2018-06-24T00:41:20.812Z,29.13
2018-06-24T00:43:49.936Z,23.40
2018-06-24T00:46:19.583Z,26.00
2018-06-24T00:48:49.772Z,15.10
2018-06-24T00:51:19.322Z,23.70
2018-06-24T00:53:49.603Z,21.63
2018-06-24T00:56:19.505Z,19.40
2018-06-24T00:58:49.474Z,25.03
2018-06-24T01:01:18.924Z,20.53
2018-06-24T01:03:48.500Z,35.43
2018-06-24T01:06:18.189Z,26.33
2018-06-24T01:08:47.680Z,23.57
2018-06-24T01:11:17.909Z,26.43
2018-06-24T01:13:47.388Z,34.27
2018-06-24T01:16:17.008Z,24.40
2018-06-24T01:18:46.561Z,31.00
2018-06-24T01:28:05.150Z,35.53
2018-06-24T01:30:34.624Z,29.67
2018-06-24T01:33:04.804Z,25.57
2018-06-24T01:35:34.376Z,30.03
2018-06-24T01:38:04.099Z,32.47
2018-06-24T01:40:34.047Z,24.10
2018-06-24T01:43:03.579Z,25.83
2018-06-24T01:45:33.620Z,21.47
2018-06-24T01:48:03.249Z,25.60
2018-06-24T01:50:32.831Z,31.27
2018-06-24T01:53:02.286Z,26.90
2018-06-24T01:55:32.610Z,29.70
2018-06-24T01:58:02.618Z,22.70
2018-06-24T02:00:32.193Z,27.70
2018-06-24T02:03:01.694Z,30.30
2018-06-24T02:05:31.637Z,30.13
2018-06-24T02:08:01.646Z,33.77
2018-06-24T02:10:31.189Z,25.27
2018-06-24T02:13:00.975Z,28.03
2018-06-24T02:15:30.439Z,26.83
2018-06-24T02:17:59.922Z,25.00
2018-06-24T02:20:29.522Z,25.10
2018-06-24T02:22:58.960Z,21.13
2018-06-24T02:25:28.599Z,30.03
2018-06-24T02:27:58.041Z,28.17
2018-06-24T02:30:27.191Z,38.60
2018-06-24T02:32:56.708Z,37.73
2018-06-24T02:35:27.148Z,15.90
2018-06-24T02:37:56.657Z,35.83
2018-06-24T02:40:26.504Z,28.00
2018-06-24T02:42:55.961Z,17.87
2018-06-24T02:45:25.438Z,19.60
2018-06-24T02:47:55.103Z,36.97
2018-06-24T02:50:24.646Z,29.63
2018-06-24T02:52:54.362Z,24.83
2018-06-24T02:55:23.889Z,32.70
2018-06-24T02:57:53.398Z,35.53
2018-06-24T03:00:22.858Z,23.87
2018-06-24T03:02:52.402Z,23.60
2018-06-24T03:05:21.917Z,14.63
2018-06-24T03:07:51.419Z,36.37
2018-06-24T03:10:20.965Z,32.50
2018-06-24T03:12:50.953Z,32.10
2018-06-24T03:15:20.682Z,39.37
2018-06-24T03:17:50.258Z,35.63
2018-06-24T03:20:19.740Z,20.73
2018-06-24T03:22:49.293Z,28.47
2018-06-24T03:25:18.748Z,30.10
2018-06-24T03:27:48.380Z,20.73
2018-06-24T03:30:18.819Z,32.53
2018-06-24T03:32:48.295Z,36.83
2018-06-24T03:35:18.433Z,23.87
2018-06-24T03:37:48.006Z,33.10
2018-06-24T03:40:17.200Z,25.37
2018-06-24T03:42:47.219Z,31.10
2018-06-24T03:45:16.374Z,32.23
2018-06-24T03:47:45.819Z,23.23
2018-06-24T03:50:15.423Z,48.43
2018-06-24T03:52:45.481Z,26.17
2018-06-24T03:55:15.139Z,22.13
2018-06-24T03:57:44.638Z,36.17
2018-06-24T04:00:14.530Z,29.43
2018-06-24T04:02:43.996Z,18.13
2018-06-24T04:05:13.308Z,27.60
2018-06-24T04:07:42.990Z,25.77
2018-06-24T04:10:12.515Z,30.77
2018-06-24T04:12:41.698Z,24.57
2018-06-24T04:15:11.509Z,25.63
2018-06-24T04:17:41.111Z,24.10
2018-06-24T04:20:11.169Z,20.63
2018-06-24T04:22:40.710Z,25.87
2018-06-24T04:25:10.734Z,25.83
2018-06-24T04:27:40.539Z,25.30
2018-06-24T04:30:10.470Z,18.60
2018-06-24T04:32:40.381Z,23.20
2018-06-24T04:35:09.819Z,25.73
2018-06-24T04:37:39.431Z,29.90
2018-06-24T04:40:08.921Z,28.10
2018-06-24T04:42:38.432Z,26.83
2018-06-24T04:45:07.947Z,19.17
2018-06-24T04:47:37.569Z,15.87
2018-06-24T04:50:06.723Z,20.63
2018-06-24T04:52:36.702Z,28.57
2018-06-24T04:55:06.601Z,25.33
2018-06-24T04:57:35.785Z,31.13
2018-06-24T05:00:06.213Z,24.17
2018-06-24T05:02:35.878Z,21.53
2018-06-24T05:05:05.833Z,23.70
2018-06-24T05:07:35.401Z,32.27
2018-06-24T05:10:05.556Z,34.40
2018-06-24T05:12:35.077Z,33.17
2018-06-24T05:15:04.703Z,22.50
2018-06-24T05:17:34.289Z,24.63
2018-06-24T05:20:04.089Z,13.60
2018-06-24T05:22:34.161Z,23.10
2018-06-24T05:25:03.701Z,37.80
2018-06-24T05:27:33.181Z,19.17
2018-06-24T05:30:02.808Z,24.53
2018-06-24T05:32:32.431Z,29.67
2018-06-24T05:35:02.008Z,20.87
2018-06-24T05:37:31.611Z,24.53
2018-06-24T05:40:01.080Z,23.40
2018-06-24T05:42:30.663Z,20.50
2018-06-24T05:45:00.689Z,22.37
2018-06-24T05:47:30.165Z,20.00
2018-06-24T05:49:59.798Z,29.07
2018-06-24T05:52:29.973Z,14.20
2018-06-24T05:54:59.404Z,18.03
2018-06-24T05:57:29.033Z,33.47
2018-06-24T05:59:58.481Z,19.00
2018-06-24T06:02:27.749Z,16.50
2018-06-24T06:04:57.194Z,24.00
2018-06-24T06:07:27.027Z,13.90
2018-06-24T06:09:56.671Z,30.03
2018-06-24T06:12:26.140Z,20.93
2018-06-24T06:14:55.714Z,15.87
2018-06-24T06:17:24.993Z,31.50
2018-06-24T06:19:54.541Z,20.40
2018-06-24T06:22:24.999Z,11.13
2018-06-24T06:24:54.541Z,12.77
2018-06-24T06:27:24.061Z,13.83
2018-06-24T06:29:53.658Z,16.10
2018-06-24T06:32:23.078Z,19.27
2018-06-24T06:34:52.759Z,21.27
2018-06-24T06:37:22.213Z,18.43
2018-06-24T06:39:51.927Z,12.03
2018-06-24T06:42:21.440Z,15.93
2018-06-24T06:44:50.962Z,10.63
2018-06-24T06:47:21.005Z,19.10
2018-06-24T06:49:50.608Z,8.00
2018-06-24T06:52:20.066Z,11.10
2018-06-24T06:54:49.690Z,16.27
2018-06-24T06:57:19.179Z,6.20
2018-06-24T06:59:48.653Z,6.20
2018-06-24T07:02:18.150Z,15.03
2018-06-24T07:04:47.632Z,7.90
2018-06-24T07:07:17.094Z,8.03
2018-06-24T07:09:46.289Z,4.20
2018-06-24T07:12:15.667Z,3.80
2018-06-24T07:14:45.116Z,4.77
2018-06-24T07:17:14.608Z,5.50
2018-06-24T07:19:44.068Z,3.00
2018-06-24T07:22:13.628Z,5.63
2018-06-24T07:24:43.089Z,3.80
2018-06-24T07:27:12.613Z,2.77
2018-06-24T07:29:42.323Z,18.43
2018-06-24T07:32:11.861Z,7.03
2018-06-24T07:34:42.478Z,4.93
2018-06-24T07:37:11.683Z,7.43
2018-06-24T07:39:41.438Z,2.47
2018-06-24T07:42:11.082Z,4.37
2018-06-24T07:44:40.580Z,8.30
2018-06-24T07:47:10.048Z,2.50
2018-06-24T07:49:39.689Z,7.10
2018-06-24T07:52:09.183Z,4.20
2018-06-24T07:54:38.709Z,5.07
2018-06-24T07:57:08.240Z,3.40
2018-06-24T07:59:37.546Z,3.83
2018-06-24T08:02:07.800Z,3.50
2018-06-24T08:04:37.372Z,2.93
2018-06-24T08:07:06.795Z,3.90
2018-06-24T08:09:36.224Z,5.13
2018-06-24T08:12:05.729Z,2.27
2018-06-24T08:14:35.338Z,6.27
2018-06-24T08:17:05.028Z,4.70
2018-06-24T08:19:34.559Z,9.90
2018-06-24T08:22:04.023Z,3.13
2018-06-24T08:24:33.517Z,4.77
2018-06-24T08:27:03.062Z,5.67
2018-06-24T08:29:32.618Z,2.07
2018-06-24T08:32:02.072Z,2.83
2018-06-24T08:34:31.974Z,3.03
2018-06-24T08:37:01.865Z,8.53
2018-06-24T08:39:31.852Z,4.57
2018-06-24T08:42:01.367Z,5.00
2018-06-24T08:44:30.895Z,4.77
2018-06-24T08:47:00.505Z,4.20
2018-06-24T08:49:29.982Z,6.80
2018-06-24T08:51:59.449Z,2.33
2018-06-24T08:54:29.017Z,3.23
2018-06-24T08:56:58.514Z,4.83
2018-06-24T08:59:28.101Z,1.10
2018-06-24T09:01:57.580Z,3.07
2018-06-24T09:04:27.110Z,4.17
2018-06-24T09:06:56.728Z,2.03
2018-06-24T09:09:26.456Z,1.43
2018-06-24T09:11:55.933Z,5.00
2018-06-24T09:14:25.619Z,6.30
2018-06-24T09:16:55.049Z,2.10
2018-06-24T09:19:24.593Z,1.90
2018-06-24T09:21:54.193Z,1.93
2018-06-24T09:24:24.010Z,1.20
2018-06-24T09:26:53.533Z,2.90
2018-06-24T09:29:23.050Z,4.23
2018-06-24T09:31:52.188Z,1.63
2018-06-24T09:34:21.660Z,4.73
2018-06-24T09:36:51.200Z,1.63
2018-06-24T09:39:20.709Z,2.47
2018-06-24T09:41:50.375Z,4.27
2018-06-24T09:44:20.161Z,3.43
2018-06-24T09:46:50.201Z,1.40
2018-06-24T09:49:19.778Z,10.27
2018-06-24T09:51:49.369Z,2.60
2018-06-24T09:54:18.927Z,3.13
2018-06-24T09:56:48.276Z,5.33
2018-06-24T09:59:17.786Z,1.63
2018-06-24T10:01:47.321Z,2.17
2018-06-24T10:04:17.880Z,5.30
2018-06-24T10:06:47.782Z,1.33
2018-06-24T10:09:17.877Z,1.47
2018-06-24T10:11:48.141Z,3.20
2018-06-24T10:14:18.502Z,2.37
2018-06-24T10:16:49.421Z,3.50
2018-06-24T10:19:19.446Z,6.83
2018-06-24T10:21:49.084Z,2.80
2018-06-24T10:24:19.353Z,1.77
2018-06-24T10:26:50.147Z,1.93
2018-06-24T10:29:20.356Z,3.43
2018-06-24T10:31:50.372Z,3.80
2018-06-24T10:34:21.111Z,1.30
2018-06-24T10:36:51.451Z,2.30
2018-06-24T10:39:21.480Z,7.17
2018-06-24T10:41:51.233Z,2.80
2018-06-24T10:44:20.736Z,3.97
2018-06-24T10:46:50.154Z,1.90
2018-06-24T10:49:19.599Z,2.90
2018-06-24T10:51:49.625Z,0.60
2018-06-24T10:54:19.076Z,1.63
2018-06-24T10:56:48.218Z,0.80
2018-06-24T10:59:17.864Z,0.70
2018-06-24T11:01:47.827Z,1.93
2018-06-24T11:04:17.358Z,1.23
2018-06-24T11:06:46.847Z,1.43
2018-06-24T11:09:16.578Z,3.50
2018-06-24T11:11:46.075Z,0.67
2018-06-24T11:14:16.221Z,1.27
2018-06-24T11:16:45.957Z,10.13
2018-06-24T11:19:16.898Z,3.83
2018-06-24T11:21:46.576Z,2.83
2018-06-24T11:24:17.391Z,2.93
2018-06-24T11:26:47.228Z,6.20
2018-06-24T11:29:16.711Z,1.33
2018-06-24T11:31:47.248Z,4.87
2018-06-24T11:34:16.754Z,1.63
2018-06-24T11:36:47.740Z,2.80
2018-06-24T11:39:17.543Z,3.00
2018-06-24T11:41:47.200Z,2.20
2018-06-24T11:44:17.011Z,5.13
2018-06-24T11:46:46.555Z,2.13
2018-06-24T11:49:16.087Z,2.40
2018-06-24T11:51:46.315Z,3.93
2018-06-24T11:54:17.375Z,4.93
2018-06-24T11:56:46.915Z,3.27
2018-06-24T11:59:16.405Z,4.00
2018-06-24T12:01:45.821Z,1.60
2018-06-24T12:04:15.365Z,1.23
2018-06-24T12:06:45.245Z,1.30
2018-06-24T12:09:16.716Z,1.07
2018-06-24T12:11:47.079Z,6.20
2018-06-24T12:14:17.691Z,1.37
2018-06-24T12:16:47.809Z,2.70
2018-06-24T12:19:17.800Z,3.50
2018-06-24T12:21:47.948Z,3.57
2018-06-24T12:24:18.136Z,2.27
2018-06-24T12:26:48.064Z,1.00
2018-06-24T12:29:18.384Z,1.57
2018-06-24T12:31:48.399Z,2.47
2018-06-24T12:34:19.545Z,2.37
2018-06-24T12:36:49.351Z,1.43
2018-06-24T12:39:19.603Z,1.97
2018-06-24T12:41:49.059Z,2.03
2018-06-24T12:44:18.676Z,4.67
2018-06-24T12:46:48.971Z,7.13
2018-06-24T12:49:19.103Z,3.83
2018-06-24T12:51:48.268Z,3.47
2018-06-24T12:54:17.933Z,9.50
2018-06-24T12:56:47.510Z,3.37
2018-06-24T12:59:17.484Z,3.97
2018-06-24T13:01:46.673Z,2.40
2018-06-24T13:04:16.281Z,3.80
2018-06-24T13:06:45.810Z,3.90
2018-06-24T13:09:15.301Z,2.30
2018-06-24T13:11:44.760Z,2.97
2018-06-24T13:14:13.997Z,2.80
2018-06-24T13:16:43.558Z,4.13
2018-06-24T13:19:12.904Z,4.23
2018-06-24T13:21:42.406Z,6.70
2018-06-24T13:24:11.938Z,4.67
2018-06-24T13:26:41.776Z,5.23
2018-06-24T13:29:11.367Z,3.97
2018-06-24T13:31:41.171Z,3.27
2018-06-24T13:34:11.377Z,3.50
2018-06-24T13:36:41.126Z,1.70
2018-06-24T13:39:11.674Z,3.60
2018-06-24T13:41:41.142Z,2.93
2018-06-24T13:44:11.684Z,7.97
2018-06-24T13:46:41.882Z,4.70
2018-06-24T13:49:11.730Z,4.50
2018-06-24T13:51:41.338Z,4.97
2018-06-24T13:54:11.211Z,7.10
2018-06-24T13:56:40.757Z,3.80
2018-06-24T13:59:10.256Z,3.47
2018-06-24T14:01:40.882Z,4.10
2018-06-24T14:04:10.511Z,2.10
2018-06-24T14:06:40.365Z,6.70
2018-06-24T14:09:13.278Z,4.20
2018-06-24T14:11:43.170Z,1.90
2018-06-24T14:14:13.486Z,3.20
2018-06-24T14:16:42.832Z,9.93
2018-06-24T14:19:13.059Z,5.13
2018-06-24T14:21:42.584Z,13.53
2018-06-24T14:24:12.178Z,4.07
2018-06-24T14:26:43.180Z,8.70
2018-06-24T14:29:14.175Z,3.23
2018-06-24T14:31:45.004Z,11.37
2018-06-24T14:34:14.562Z,3.80
2018-06-24T14:36:45.055Z,2.40
2018-06-24T14:39:15.633Z,4.60
2018-06-24T14:41:47.330Z,3.13
2018-06-24T14:44:19.949Z,1.60
2018-06-24T14:46:49.778Z,2.27
2018-06-24T14:49:20.385Z,3.00
2018-06-24T14:51:49.659Z,2.77
2018-06-24T14:54:19.722Z,6.00
2018-06-24T14:56:49.483Z,7.47
2018-06-24T14:59:19.390Z,5.70
2018-06-24T15:01:49.810Z,6.43
2018-06-24T15:04:20.019Z,8.20
2018-06-24T15:06:50.705Z,9.00
2018-06-24T15:09:21.272Z,3.60
2018-06-24T15:11:51.206Z,5.57
2018-06-24T15:14:20.821Z,4.07
2018-06-24T15:16:50.456Z,5.30
2018-06-24T15:19:20.108Z,4.20
2018-06-24T15:21:49.614Z,6.70
2018-06-24T15:24:20.459Z,5.03
2018-06-24T15:26:50.133Z,14.20
2018-06-24T15:29:20.321Z,3.50
2018-06-24T15:31:50.275Z,6.20
2018-06-24T15:34:20.911Z,8.80
2018-06-24T15:36:52.934Z,6.13
2018-06-24T15:39:23.826Z,6.70
2018-06-24T15:41:54.331Z,4.00
2018-06-24T15:44:23.819Z,10.00
2018-06-24T15:46:53.323Z,9.17
2018-06-24T15:49:23.642Z,6.70
2018-06-24T15:51:53.036Z,7.07
2018-06-24T15:54:22.543Z,10.90
2018-06-24T15:56:52.460Z,8.83
2018-06-24T15:59:22.017Z,13.30
2018-06-24T16:01:51.171Z,8.63
2018-06-24T16:04:21.066Z,8.03
2018-06-24T16:06:51.073Z,7.67
2018-06-24T16:09:20.668Z,6.37
2018-06-24T16:11:50.320Z,6.83
2018-06-24T16:14:20.181Z,21.43
2018-06-24T16:16:49.721Z,9.77
2018-06-24T16:19:19.257Z,9.00
2018-06-24T16:21:48.808Z,5.50
2018-06-24T16:24:18.402Z,4.57
2018-06-24T16:26:47.879Z,12.47
2018-06-24T16:29:17.834Z,13.43
2018-06-24T16:31:47.399Z,15.23
2018-06-24T16:34:17.636Z,5.17
2018-06-24T16:36:47.262Z,9.83
2018-06-24T16:39:16.768Z,5.40
2018-06-24T16:41:50.445Z,5.87
2018-06-24T16:44:19.963Z,7.93
2018-06-24T16:46:49.455Z,7.13
2018-06-24T16:49:19.541Z,4.10
2018-06-24T16:51:49.202Z,7.43
2018-06-24T16:54:18.798Z,13.47
2018-06-24T16:56:48.341Z,6.70
2018-06-24T16:59:18.616Z,5.30
2018-06-24T17:01:48.170Z,6.63
2018-06-24T17:04:18.368Z,15.93
2018-06-24T17:06:48.980Z,7.57
2018-06-24T17:09:19.637Z,12.90
2018-06-24T17:11:49.138Z,9.80
2018-06-24T17:14:19.408Z,10.67
2018-06-24T17:16:49.158Z,12.30
2018-06-24T17:19:18.654Z,5.13
2018-06-24T17:21:48.160Z,10.23
2018-06-24T17:24:18.124Z,14.73
2018-06-24T17:26:47.985Z,7.10
2018-06-24T17:29:18.631Z,5.17
2018-06-24T17:31:48.470Z,6.60
2018-06-24T17:34:18.909Z,7.77
2018-06-24T17:36:48.492Z,7.30
2018-06-24T17:39:19.028Z,5.13
2018-06-24T17:41:48.501Z,18.57
2018-06-24T17:44:19.437Z,8.67
2018-06-24T17:46:49.581Z,9.97
2018-06-24T17:49:19.124Z,8.60
2018-06-24T17:51:48.604Z,12.50
2018-06-24T17:54:19.609Z,9.10
2018-06-24T17:56:49.190Z,8.90
2018-06-24T17:59:18.854Z,13.63
2018-06-24T18:01:48.968Z,6.30
2018-06-24T18:04:19.421Z,10.40
2018-06-24T18:06:48.879Z,8.80
2018-06-24T18:09:18.430Z,7.37
2018-06-24T18:11:48.661Z,8.33
2018-06-24T18:14:18.185Z,18.00
2018-06-24T18:16:48.171Z,6.67
2018-06-24T18:19:17.744Z,4.57
2018-06-24T18:21:47.024Z,10.00
2018-06-24T18:24:16.721Z,7.17
2018-06-24T18:26:46.822Z,10.33
2018-06-24T18:29:16.945Z,7.60
2018-06-24T18:31:46.465Z,10.63
2018-06-24T18:34:16.078Z,9.53
2018-06-24T18:36:45.643Z,13.43
2018-06-24T18:39:15.291Z,10.30
2018-06-24T18:41:44.769Z,10.43
2018-06-24T18:44:14.494Z,6.97
2018-06-24T18:46:43.976Z,8.73
2018-06-24T18:49:13.527Z,12.93
2018-06-24T18:51:43.010Z,5.70
2018-06-24T18:54:12.476Z,9.20
2018-06-24T18:56:42.025Z,12.13
2018-06-24T18:59:11.509Z,7.87
2018-06-24T19:01:41.058Z,10.60
2018-06-24T19:04:10.466Z,10.83
2018-06-24T19:06:40.166Z,11.97
2018-06-24T19:09:12.864Z,12.37
2018-06-24T19:11:42.921Z,11.20
2018-06-24T19:14:12.310Z,9.20
2018-06-24T19:16:42.217Z,16.03
2018-06-24T19:19:11.393Z,8.13
2018-06-24T19:21:40.886Z,10.60
2018-06-24T19:24:10.374Z,8.60
2018-06-24T19:26:39.978Z,11.07
2018-06-24T19:29:09.704Z,15.33
2018-06-24T19:31:39.208Z,17.17
2018-06-24T19:34:08.779Z,24.27
2018-06-24T19:36:39.302Z,11.70
2018-06-24T19:39:10.592Z,11.87
2018-06-24T19:41:41.466Z,5.87
2018-06-24T19:44:11.230Z,11.20
2018-06-24T19:46:40.809Z,9.40
2018-06-24T19:49:10.416Z,12.43
2018-06-24T19:51:41.427Z,8.33
2018-06-24T19:54:12.470Z,14.60
2018-06-24T19:56:42.010Z,16.07
2018-06-24T19:59:11.429Z,12.93
2018-06-24T20:01:41.803Z,9.33
2018-06-24T20:04:11.495Z,6.23
2018-06-24T20:06:41.779Z,15.03
2018-06-24T20:09:11.945Z,8.70
2018-06-24T20:11:42.206Z,9.93
2018-06-24T20:14:11.594Z,9.10
2018-06-24T20:16:41.422Z,9.53
2018-06-24T20:19:11.267Z,6.43
2018-06-24T20:21:40.892Z,8.90
2018-06-24T20:24:10.336Z,12.10
2018-06-24T20:26:39.880Z,10.37
2018-06-24T20:29:10.132Z,9.57
2018-06-24T20:31:39.588Z,22.23
2018-06-24T20:34:09.191Z,14.63
2018-06-24T20:36:39.210Z,14.03
2018-06-24T20:39:09.882Z,13.83
2018-06-24T20:41:39.397Z,8.63
2018-06-24T20:44:08.854Z,9.10
2018-06-24T20:46:38.339Z,15.80
2018-06-24T20:49:08.251Z,10.27
2018-06-24T20:51:37.747Z,13.17
2018-06-24T20:54:07.272Z,14.63
2018-06-24T20:56:36.970Z,18.40
2018-06-24T20:59:06.917Z,14.87
2018-06-24T21:01:36.711Z,7.30
2018-06-24T21:04:06.502Z,21.23
2018-06-24T21:06:36.548Z,14.80
2018-06-24T21:09:09.956Z,14.83
2018-06-24T21:11:40.423Z,11.10
2018-06-24T21:14:09.994Z,14.23
2018-06-24T21:16:40.337Z,16.97
2018-06-24T21:19:10.097Z,24.23
2018-06-24T21:21:41.380Z,12.20
2018-06-24T21:24:10.927Z,11.87
2018-06-24T21:26:40.453Z,15.50
2018-06-24T21:29:10.362Z,17.63
2018-06-24T21:31:39.906Z,9.30
2018-06-24T21:34:09.513Z,19.63
2018-06-24T21:36:41.030Z,20.53
2018-06-24T21:39:11.456Z,16.30
2018-06-24T21:41:42.181Z,16.67
2018-06-24T21:44:11.946Z,15.27
2018-06-24T21:46:41.531Z,14.13
2018-06-24T21:49:11.886Z,17.77
2018-06-24T21:51:41.359Z,23.90
2018-06-24T21:54:12.622Z,21.93
2018-06-24T21:56:42.098Z,20.03
2018-06-24T21:59:11.708Z,14.33
2018-06-24T22:01:41.166Z,17.33
2018-06-24T22:04:11.245Z,16.40
2018-06-24T22:06:41.576Z,20.33
2018-06-24T22:09:12.444Z,14.67
2018-06-24T22:11:43.212Z,22.53
2018-06-24T22:14:12.804Z,17.23
2018-06-24T22:16:42.940Z,19.37
2018-06-24T22:19:12.421Z,22.27
2018-06-24T22:21:43.204Z,17.33
2018-06-24T22:24:12.817Z,18.93
2018-06-24T22:26:42.769Z,19.03
2018-06-24T22:29:14.298Z,23.70
2018-06-24T22:31:44.527Z,22.20
2018-06-24T22:34:15.070Z,13.50
2018-06-24T22:36:44.775Z,13.80
2018-06-24T22:39:14.876Z,17.63
2018-06-24T22:41:45.154Z,21.80
2018-06-24T22:44:14.927Z,19.70
2018-06-24T22:46:44.455Z,8.80
2018-06-24T22:49:14.059Z,23.67
2018-06-24T22:51:43.734Z,21.23
2018-06-24T22:54:14.889Z,12.30
2018-06-24T22:56:45.065Z,21.57
2018-06-24T22:59:25.482Z,30.03
2018-06-24T23:01:56.211Z,15.57
2018-06-24T23:04:26.762Z,19.00
2018-06-24T23:06:57.765Z,12.73
2018-06-24T23:09:28.755Z,14.17
2018-06-24T23:11:59.041Z,29.53
2018-06-24T23:14:28.786Z,20.73
2018-06-24T23:16:58.409Z,13.00
2018-06-24T23:19:28.867Z,29.77
2018-06-24T23:21:58.650Z,12.47
2018-06-24T23:24:28.734Z,19.43
2018-06-24T23:26:58.281Z,20.97
2018-06-24T23:29:27.978Z,19.47
2018-06-24T23:31:57.458Z,18.47
2018-06-24T23:34:26.963Z,25.83
2018-06-24T23:36:56.409Z,21.07
2018-06-24T23:39:26.774Z,18.57
2018-06-24T23:41:56.286Z,17.93
2018-06-24T23:44:26.813Z,27.33
2018-06-24T23:46:56.619Z,19.87
2018-06-24T23:49:27.307Z,10.27
2018-06-24T23:51:56.719Z,17.83
2018-06-24T23:54:26.210Z,20.73
2018-06-24T23:56:57.021Z,17.00
2018-06-24T23:59:29.269Z,19.93
